createdAt,value
2022-09-20T00:00:30.785Z,9.00
2022-09-20T00:01:52.882Z,9.00
2022-09-20T00:03:16.252Z,9.00
2022-09-20T00:04:38.418Z,9.00
2022-09-20T00:06:05.415Z,8.90
2022-09-20T00:07:27.453Z,8.90
2022-09-20T00:08:50.071Z,8.90
2022-09-20T00:10:12.888Z,8.80
2022-09-20T00:11:35.951Z,8.80
2022-09-20T00:12:58.150Z,8.80
2022-09-20T00:14:20.222Z,8.80
2022-09-20T00:15:44.289Z,8.70
2022-09-20T00:17:06.489Z,8.70
2022-09-20T00:18:28.618Z,8.70
2022-09-20T00:19:50.703Z,8.70
2022-09-20T00:21:18.175Z,8.70
2022-09-20T00:22:40.216Z,8.70
2022-09-20T00:24:02.592Z,8.70
2022-09-20T00:25:24.880Z,8.60
2022-09-20T00:26:46.988Z,8.60
2022-09-20T00:28:12.091Z,8.60
2022-09-20T00:29:34.143Z,8.60
2022-09-20T00:30:56.942Z,8.60
2022-09-20T00:32:18.998Z,8.60
2022-09-20T00:33:59.859Z,8.60
2022-09-20T00:35:21.930Z,8.60
2022-09-20T00:36:44.972Z,8.60
2022-09-20T00:38:07.043Z,8.60
2022-09-20T00:39:29.567Z,8.60
2022-09-20T00:40:51.689Z,8.60
2022-09-20T00:42:14.931Z,8.60
2022-09-20T00:43:42.752Z,8.70
2022-09-20T00:45:15.697Z,8.70
2022-09-20T00:46:40.430Z,8.70
2022-09-20T00:48:12.273Z,8.80
2022-09-20T00:49:37.455Z,8.80
2022-09-20T00:51:09.220Z,8.90
2022-09-20T00:52:32.470Z,9.00
2022-09-20T00:53:57.433Z,9.00
2022-09-20T00:55:20.254Z,9.00
2022-09-20T00:56:44.146Z,9.10
2022-09-20T00:58:06.775Z,9.10
2022-09-20T00:59:39.958Z,9.10
2022-09-20T01:01:03.555Z,9.10
2022-09-20T01:02:29.379Z,9.10
2022-09-20T01:03:51.835Z,9.20
2022-09-20T01:05:15.765Z,9.20
2022-09-20T01:06:38.094Z,9.20
2022-09-20T01:08:00.921Z,9.30
2022-09-20T01:09:22.998Z,9.30
2022-09-20T01:10:45.346Z,9.30
2022-09-20T01:12:12.675Z,9.40
2022-09-20T01:13:34.728Z,9.40
2022-09-20T01:14:59.108Z,9.40
2022-09-20T01:16:22.440Z,9.50
2022-09-20T01:17:50.519Z,9.50
2022-09-20T01:19:57.979Z,9.50
2022-09-20T01:21:20.770Z,9.50
2022-09-20T01:23:07.321Z,9.60
2022-09-20T01:24:41.142Z,9.60
2022-09-20T01:26:06.284Z,9.70
2022-09-20T01:27:41.650Z,9.70
2022-09-20T01:29:13.396Z,9.70
2022-09-20T01:30:45.431Z,9.70
2022-09-20T01:32:13.594Z,9.70
2022-09-20T01:34:06.866Z,9.70
2022-09-20T01:35:30.142Z,9.70
2022-09-20T01:36:54.596Z,9.70
2022-09-20T01:38:44.084Z,9.70
2022-09-20T01:40:18.703Z,9.70
2022-09-20T01:41:57.927Z,9.70
2022-09-20T01:43:34.185Z,9.70
2022-09-20T01:45:21.303Z,9.70
2022-09-20T01:46:44.285Z,9.70
2022-09-20T01:48:24.747Z,9.80
2022-09-20T01:50:01.761Z,9.70
2022-09-20T01:52:10.900Z,9.70
2022-09-20T01:53:53.162Z,9.70
2022-09-20T01:55:42.679Z,9.80
2022-09-20T01:57:38.056Z,9.80
2022-09-20T01:59:26.751Z,9.80
2022-09-20T02:01:10.602Z,9.80
2022-09-20T02:02:47.708Z,9.80
2022-09-20T02:04:24.624Z,9.70
2022-09-20T02:06:12.954Z,9.70
2022-09-20T02:07:59.352Z,9.70
2022-09-20T02:09:36.308Z,9.70
2022-09-20T02:11:12.668Z,9.70
2022-09-20T02:13:23.746Z,9.70
2022-09-20T02:14:45.711Z,9.60
2022-09-20T02:16:32.547Z,9.50
2022-09-20T02:18:42.633Z,9.50
2022-09-20T02:20:23.483Z,9.50
2022-09-20T02:22:00.111Z,9.50
2022-09-20T02:23:39.980Z,9.40
2022-09-20T02:25:23.064Z,9.40
2022-09-20T02:26:47.879Z,9.40
2022-09-20T02:28:37.828Z,9.40
2022-09-20T02:30:08.907Z,9.40
2022-09-20T02:31:49.526Z,9.40
2022-09-20T02:33:45.810Z,9.40
2022-09-20T02:35:25.841Z,9.40
2022-09-20T02:37:20.759Z,9.40
2022-09-20T02:38:50.351Z,9.50
2022-09-20T02:40:34.243Z,9.50
2022-09-20T02:41:59.660Z,9.50
2022-09-20T02:43:27.592Z,9.50
2022-09-20T02:45:07.011Z,9.50
2022-09-20T02:46:45.535Z,9.60
2022-09-20T02:48:07.649Z,9.60
2022-09-20T02:49:41.484Z,9.60
2022-09-20T02:51:25.953Z,9.60
2022-09-20T02:53:31.302Z,9.70
2022-09-20T02:56:51.583Z,9.10
2022-09-20T02:58:19.257Z,8.20
2022-09-20T02:59:50.664Z,7.80
2022-09-20T03:01:24.403Z,7.70
2022-09-20T03:02:56.431Z,7.70
2022-09-20T03:04:31.063Z,7.70
2022-09-20T03:06:27.438Z,7.80
2022-09-20T03:08:11.269Z,7.90
2022-09-20T03:10:05.721Z,8.00
2022-09-20T03:11:44.251Z,8.10
2022-09-20T03:13:50.065Z,8.10
2022-09-20T03:15:37.752Z,8.20
2022-09-20T03:17:21.175Z,8.30
2022-09-20T03:19:06.760Z,8.30
2022-09-20T03:20:35.901Z,8.30
2022-09-20T03:22:09.767Z,8.40
2022-09-20T03:23:37.401Z,8.40
2022-09-20T03:25:08.377Z,8.40
2022-09-20T03:26:55.352Z,8.50
2022-09-20T03:28:39.696Z,8.50
2022-09-20T03:30:19.971Z,8.50
2022-09-20T03:31:59.975Z,8.50
2022-09-20T03:33:43.223Z,8.60
2022-09-20T03:35:26.751Z,8.60
2022-09-20T03:37:24.651Z,8.60
2022-09-20T03:38:56.387Z,8.60
2022-09-20T03:40:33.886Z,8.60
2022-09-20T03:42:22.820Z,8.60
2022-09-20T03:43:56.495Z,8.60
2022-09-20T03:45:43.382Z,8.60
2022-09-20T03:47:42.792Z,8.70
2022-09-20T03:49:17.011Z,8.70
2022-09-20T03:50:41.937Z,8.70
2022-09-20T03:52:09.555Z,8.70
2022-09-20T03:53:51.099Z,8.70
2022-09-20T03:55:15.945Z,8.70
2022-09-20T03:56:55.821Z,8.70
2022-09-20T03:58:28.529Z,8.70
2022-09-20T04:00:15.642Z,8.70
2022-09-20T04:02:01.061Z,8.70
2022-09-20T04:03:38.164Z,8.70
2022-09-20T04:05:13.195Z,8.70
2022-09-20T04:07:07.176Z,8.70
2022-09-20T04:09:03.153Z,8.70
2022-09-20T04:10:51.613Z,8.80
2022-09-20T04:12:28.173Z,8.80
2022-09-20T04:13:56.932Z,8.80
2022-09-20T04:15:41.138Z,8.80
2022-09-20T04:17:34.178Z,8.80
2022-09-20T04:19:11.559Z,8.90
2022-09-20T04:20:36.575Z,8.90
2022-09-20T04:22:00.332Z,8.90
2022-09-20T04:23:50.747Z,8.90
2022-09-20T04:25:17.994Z,8.90
2022-09-20T04:26:46.565Z,8.90
2022-09-20T04:28:22.468Z,9.00
2022-09-20T04:29:52.110Z,9.00
2022-09-20T04:31:42.540Z,9.00
2022-09-20T04:33:15.108Z,9.00
2022-09-20T04:35:05.251Z,9.00
2022-09-20T04:36:38.236Z,9.00
2022-09-20T04:38:06.217Z,9.00
2022-09-20T04:39:44.555Z,9.00
2022-09-20T04:41:22.142Z,9.00
2022-09-20T04:43:21.752Z,9.00
2022-09-20T04:45:13.114Z,9.00
2022-09-20T04:46:56.066Z,9.00
2022-09-20T04:48:38.095Z,9.10
2022-09-20T04:50:18.435Z,9.10
2022-09-20T04:52:06.515Z,9.10
2022-09-20T04:53:40.736Z,9.10
2022-09-20T04:55:21.168Z,9.10
2022-09-20T04:57:13.594Z,9.10
2022-09-20T04:59:08.393Z,9.10
2022-09-20T05:01:02.085Z,9.10
2022-09-20T05:02:55.018Z,9.00
2022-09-20T05:04:36.911Z,9.00
2022-09-20T05:06:35.260Z,9.00
2022-09-20T05:08:18.609Z,9.00
2022-09-20T05:10:07.258Z,8.90
2022-09-20T05:11:53.652Z,8.90
2022-09-20T05:13:38.385Z,8.80
2022-09-20T05:15:23.425Z,8.80
2022-09-20T05:17:23.562Z,8.80
2022-09-20T05:19:04.533Z,8.80
2022-09-20T05:20:44.684Z,8.80
2022-09-20T05:22:25.345Z,8.70
2022-09-20T05:24:25.640Z,8.70
2022-09-20T05:26:07.293Z,8.70
2022-09-20T05:27:47.868Z,8.70
2022-09-20T05:29:10.349Z,8.70
2022-09-20T05:30:46.851Z,8.70
2022-09-20T05:32:18.493Z,8.70
2022-09-20T05:34:05.785Z,8.80
2022-09-20T05:35:53.539Z,8.90
2022-09-20T05:37:58.331Z,8.90
2022-09-20T05:39:45.682Z,9.10
2022-09-20T05:41:18.760Z,9.10
2022-09-20T05:42:51.194Z,9.10
2022-09-20T05:44:31.808Z,9.20
2022-09-20T05:46:24.195Z,9.20
2022-09-20T05:48:10.224Z,9.30
2022-09-20T05:49:41.347Z,9.20
2022-09-20T05:51:06.335Z,9.20
2022-09-20T05:53:03.269Z,9.20
2022-09-20T05:54:36.776Z,9.20
2022-09-20T05:56:26.661Z,9.20
2022-09-20T05:58:21.324Z,9.20
2022-09-20T06:00:19.693Z,9.20
2022-09-20T06:01:58.442Z,9.20
2022-09-20T06:03:39.691Z,9.20
2022-09-20T06:05:01.649Z,9.30
2022-09-20T06:06:32.755Z,9.20
2022-09-20T06:08:04.578Z,9.30
2022-09-20T06:09:50.966Z,9.40
2022-09-20T06:11:37.614Z,9.40
2022-09-20T06:13:24.439Z,9.60
2022-09-20T06:14:52.313Z,9.70
2022-09-20T06:16:23.778Z,9.80
2022-09-20T06:18:01.586Z,9.90
2022-09-20T06:19:37.198Z,10.00
2022-09-20T06:21:19.781Z,10.10
2022-09-20T06:22:45.298Z,10.10
2022-09-20T06:24:37.446Z,10.20
2022-09-20T06:26:09.154Z,10.20
2022-09-20T06:27:37.677Z,10.20
2022-09-20T06:29:03.404Z,10.20
2022-09-20T06:30:37.120Z,10.20
2022-09-20T06:31:59.404Z,10.20
2022-09-20T06:33:26.455Z,10.10
2022-09-20T06:34:49.864Z,10.20
2022-09-20T06:36:44.213Z,10.30
2022-09-20T06:38:49.979Z,10.40
2022-09-20T06:40:50.038Z,10.40
2022-09-20T06:43:36.335Z,10.50
2022-09-20T06:44:58.509Z,10.50
2022-09-20T06:46:20.856Z,10.50
2022-09-20T06:47:43.340Z,10.50
2022-09-20T06:49:09.554Z,10.50
2022-09-20T06:50:32.729Z,10.60
2022-09-20T06:51:55.805Z,10.60
2022-09-20T06:53:32.659Z,10.60
2022-09-20T06:54:56.148Z,10.60
2022-09-20T06:56:25.064Z,10.70
2022-09-20T06:57:47.291Z,10.70
2022-09-20T06:59:11.417Z,10.70
2022-09-20T07:00:33.503Z,10.70
2022-09-20T07:01:55.772Z,10.70
2022-09-20T07:03:19.879Z,10.70
2022-09-20T07:04:42.277Z,10.70
2022-09-20T07:06:04.559Z,10.70
2022-09-20T07:07:26.990Z,10.70
2022-09-20T07:08:49.045Z,10.70
2022-09-20T07:10:12.248Z,10.70
2022-09-20T07:11:34.931Z,10.80
2022-09-20T07:12:59.438Z,10.80
2022-09-20T07:14:23.083Z,10.90
2022-09-20T07:15:45.119Z,10.90
2022-09-20T07:17:07.573Z,10.90
2022-09-20T07:18:29.813Z,11.00
2022-09-20T07:19:51.837Z,11.00
2022-09-20T07:21:15.852Z,11.00
2022-09-20T07:22:38.115Z,11.10
2022-09-20T07:24:00.384Z,11.10
2022-09-20T07:25:22.740Z,11.20
2022-09-20T07:26:59.180Z,11.20
2022-09-20T07:28:21.249Z,11.30
2022-09-20T07:29:43.577Z,11.40
2022-09-20T07:31:05.668Z,11.40
2022-09-20T07:32:28.068Z,11.50
2022-09-20T07:33:50.242Z,11.50
2022-09-20T07:35:12.903Z,11.50
2022-09-20T07:36:34.941Z,11.40
2022-09-20T07:37:58.164Z,11.40
2022-09-20T07:39:20.228Z,11.30
2022-09-20T07:40:42.363Z,11.30
2022-09-20T07:42:06.438Z,11.30
2022-09-20T07:43:29.469Z,11.40
2022-09-20T07:44:52.593Z,11.50
2022-09-20T07:46:14.707Z,11.50
2022-09-20T07:47:36.815Z,11.70
2022-09-20T07:48:58.800Z,11.80
2022-09-20T07:50:20.810Z,11.80
2022-09-20T07:51:42.862Z,11.90
2022-09-20T07:54:27.659Z,12.00
2022-09-20T07:56:12.300Z,12.10
2022-09-20T07:57:38.371Z,12.20
2022-09-20T07:59:00.366Z,12.30
2022-09-20T08:00:22.420Z,12.40
2022-09-20T08:01:44.512Z,12.50
2022-09-20T08:03:06.818Z,12.60
2022-09-20T08:04:28.907Z,12.70
2022-09-20T08:05:51.132Z,12.80
2022-09-20T08:07:13.113Z,12.90
2022-09-20T08:08:37.085Z,13.00
2022-09-20T08:10:00.042Z,13.00
2022-09-20T08:11:27.943Z,13.20
2022-09-20T08:14:32.350Z,13.40
2022-09-20T08:16:02.472Z,13.60
2022-09-20T08:17:24.667Z,13.90
2022-09-20T08:20:10.043Z,14.40
2022-09-20T08:21:34.169Z,14.70
2022-09-20T08:23:21.984Z,14.80
2022-09-20T08:24:40.870Z,14.80
2022-09-20T08:26:03.940Z,15.00
2022-09-20T08:27:26.313Z,15.10
2022-09-20T08:28:52.808Z,15.10
2022-09-20T08:30:14.994Z,15.10
2022-09-20T08:31:42.130Z,15.20
2022-09-20T08:33:04.872Z,15.40
2022-09-20T08:34:26.930Z,15.30
2022-09-20T08:35:49.570Z,15.20
2022-09-20T08:37:11.621Z,15.10
2022-09-20T08:40:17.795Z,14.60
2022-09-20T08:41:48.516Z,14.50
2022-09-20T08:43:12.005Z,14.50
2022-09-20T08:44:45.350Z,14.20
2022-09-20T08:46:13.792Z,14.10
2022-09-20T08:47:45.266Z,14.00
2022-09-20T08:49:11.041Z,14.00
2022-09-20T08:50:34.616Z,14.00
2022-09-20T08:51:58.650Z,14.10
2022-09-20T08:53:21.487Z,14.20
2022-09-20T08:54:43.820Z,14.60
2022-09-20T08:56:06.541Z,14.80
2022-09-20T08:57:32.483Z,14.90
2022-09-20T08:58:56.491Z,15.10
2022-09-20T09:00:21.362Z,15.40
2022-09-20T09:01:43.462Z,15.60
2022-09-20T09:03:10.872Z,15.70
2022-09-20T09:04:36.346Z,15.60
2022-09-20T09:05:58.783Z,15.70
2022-09-20T09:07:22.520Z,15.70
2022-09-20T09:08:45.750Z,15.60
2022-09-20T09:10:09.704Z,15.50
2022-09-20T09:11:31.812Z,15.50
2022-09-20T09:12:54.685Z,15.40
2022-09-20T09:14:48.415Z,15.50
2022-09-20T09:16:22.526Z,15.50
2022-09-20T09:17:45.878Z,15.50
2022-09-20T09:19:33.921Z,15.70
2022-09-20T09:20:58.761Z,16.10
2022-09-20T09:22:26.397Z,16.40
2022-09-20T09:24:04.764Z,16.30
2022-09-20T09:25:37.993Z,16.20
2022-09-20T09:27:16.553Z,16.00
2022-09-20T09:28:38.670Z,15.80
2022-09-20T09:30:00.986Z,15.50
2022-09-20T09:31:27.917Z,15.40
2022-09-20T09:32:50.074Z,15.20
2022-09-20T09:34:30.067Z,15.00
2022-09-20T09:36:07.852Z,14.90
2022-09-20T09:37:31.442Z,14.90
2022-09-20T09:39:26.612Z,14.80
2022-09-20T09:41:06.408Z,14.80
2022-09-20T09:42:28.863Z,14.80
2022-09-20T09:44:20.087Z,14.90
2022-09-20T09:45:43.120Z,14.90
2022-09-20T09:47:27.153Z,14.90
2022-09-20T09:49:13.281Z,15.00
2022-09-20T09:50:35.544Z,15.10
2022-09-20T09:52:15.707Z,15.50
2022-09-20T09:53:39.328Z,15.70
2022-09-20T09:55:05.850Z,15.70
2022-09-20T09:56:42.882Z,15.60
2022-09-20T09:58:30.424Z,15.50
2022-09-20T10:00:17.724Z,15.40
2022-09-20T10:02:07.194Z,15.30
2022-09-20T10:03:34.515Z,15.30
2022-09-20T10:05:15.601Z,15.40
2022-09-20T10:06:45.394Z,15.40
2022-09-20T10:08:29.967Z,15.50
2022-09-20T10:10:07.160Z,15.40
2022-09-20T10:11:38.564Z,15.30
2022-09-20T10:13:08.596Z,15.20
2022-09-20T10:14:37.081Z,15.30
2022-09-20T10:16:29.062Z,15.30
2022-09-20T10:18:12.537Z,15.50
2022-09-20T10:19:40.780Z,15.50
2022-09-20T10:21:28.579Z,15.70
2022-09-20T10:23:39.510Z,16.10
2022-09-20T10:25:02.949Z,16.30
2022-09-20T10:26:27.855Z,16.30
2022-09-20T10:27:58.215Z,16.30
2022-09-20T10:29:27.727Z,16.30
2022-09-20T10:30:58.383Z,16.10
2022-09-20T10:32:39.537Z,15.90
2022-09-20T10:34:20.386Z,15.80
2022-09-20T10:35:55.817Z,15.70
2022-09-20T10:37:36.961Z,15.60
2022-09-20T10:39:16.772Z,15.60
2022-09-20T10:41:19.235Z,15.50
2022-09-20T10:43:18.797Z,15.50
2022-09-20T10:45:04.349Z,15.70
2022-09-20T10:46:38.561Z,15.80
2022-09-20T10:48:21.746Z,15.90
2022-09-20T10:50:03.071Z,16.30
2022-09-20T10:51:54.611Z,16.70
2022-09-20T10:53:50.115Z,17.20
2022-09-20T10:55:20.880Z,17.50
2022-09-20T10:56:50.695Z,17.50
2022-09-20T10:58:40.044Z,17.30
2022-09-20T11:00:22.210Z,17.10
2022-09-20T11:01:58.809Z,16.90
2022-09-20T11:03:39.503Z,16.60
2022-09-20T11:05:24.341Z,16.50
2022-09-20T11:07:17.060Z,16.30
2022-09-20T11:08:40.759Z,16.20
2022-09-20T11:10:14.907Z,16.20
2022-09-20T11:11:46.197Z,16.10
2022-09-20T11:13:22.232Z,16.00
2022-09-20T11:14:53.510Z,16.00
2022-09-20T11:16:40.653Z,16.00
2022-09-20T11:18:14.827Z,16.10
2022-09-20T11:19:56.396Z,16.00
2022-09-20T11:21:39.137Z,16.00
2022-09-20T11:23:12.003Z,15.80
2022-09-20T11:24:40.410Z,15.80
2022-09-20T11:26:11.328Z,15.70
2022-09-20T11:27:43.426Z,15.50
2022-09-20T11:29:21.071Z,15.30
2022-09-20T11:31:07.851Z,15.10
2022-09-20T11:32:42.273Z,14.90
2022-09-20T11:34:49.944Z,14.30
2022-09-20T11:36:58.898Z,13.70
2022-09-20T11:38:53.690Z,13.30
2022-09-20T11:40:28.476Z,13.20
2022-09-20T11:41:54.927Z,13.10
2022-09-20T11:43:19.853Z,13.10
2022-09-20T11:44:42.869Z,13.10
2022-09-20T11:46:10.087Z,13.20
2022-09-20T11:47:54.498Z,13.30
2022-09-20T11:49:32.345Z,13.30
2022-09-20T11:51:21.996Z,13.40
2022-09-20T11:52:50.475Z,13.50
2022-09-20T11:54:48.717Z,13.70
2022-09-20T11:56:10.687Z,13.80
2022-09-20T11:57:33.266Z,14.00
2022-09-20T11:59:00.475Z,14.20
2022-09-20T12:00:31.106Z,14.40
2022-09-20T12:01:56.615Z,14.80
2022-09-20T12:03:28.780Z,15.10
2022-09-20T12:04:53.421Z,15.50
2022-09-20T12:06:34.359Z,15.70
2022-09-20T12:07:59.619Z,16.00
2022-09-20T12:09:37.886Z,16.30
2022-09-20T12:11:07.324Z,16.40
2022-09-20T12:12:44.040Z,16.60
2022-09-20T12:14:33.528Z,16.80
2022-09-20T12:16:08.334Z,16.80
2022-09-20T12:17:48.427Z,16.80
2022-09-20T12:19:36.362Z,16.60
2022-09-20T12:21:02.603Z,16.30
2022-09-20T12:22:28.989Z,16.00
2022-09-20T12:23:53.693Z,16.00
2022-09-20T12:25:39.135Z,16.20
2022-09-20T12:27:06.670Z,16.30
2022-09-20T12:28:48.060Z,16.40
2022-09-20T12:30:20.145Z,16.30
2022-09-20T12:31:48.778Z,16.10
2022-09-20T12:33:20.758Z,16.10
2022-09-20T12:34:42.742Z,16.30
2022-09-20T12:36:18.176Z,16.50
2022-09-20T12:37:40.198Z,16.60
2022-09-20T12:39:11.427Z,16.50
2022-09-20T12:40:33.522Z,16.70
2022-09-20T12:42:01.554Z,16.80
2022-09-20T12:43:24.290Z,16.70
2022-09-20T12:44:49.364Z,16.60
2022-09-20T12:46:25.953Z,16.80
2022-09-20T12:47:55.853Z,16.80
2022-09-20T12:49:46.946Z,16.70
2022-09-20T12:51:33.260Z,16.50
2022-09-20T12:52:57.526Z,16.40
2022-09-20T12:54:19.790Z,16.50
2022-09-20T12:56:06.426Z,16.60
2022-09-20T12:57:35.550Z,16.50
2022-09-20T12:58:57.850Z,16.50
2022-09-20T13:00:33.582Z,16.40
2022-09-20T13:01:55.622Z,16.50
2022-09-20T13:03:23.990Z,16.60
2022-09-20T13:04:55.468Z,16.70
2022-09-20T13:06:19.159Z,16.60
2022-09-20T13:07:52.386Z,16.60
2022-09-20T13:09:16.011Z,16.60
2022-09-20T13:10:42.958Z,16.80
2022-09-20T13:12:05.485Z,17.00
2022-09-20T13:13:33.333Z,17.10
2022-09-20T13:14:55.700Z,17.10
2022-09-20T13:16:35.738Z,16.80
2022-09-20T13:18:01.046Z,16.70
2022-09-20T13:19:44.752Z,16.70
2022-09-20T13:21:08.246Z,16.80
2022-09-20T13:22:37.077Z,16.90
2022-09-20T13:23:59.824Z,17.10
2022-09-20T13:25:23.892Z,17.10
2022-09-20T13:26:47.834Z,16.90
2022-09-20T13:28:21.846Z,16.80
2022-09-20T13:29:45.364Z,16.50
2022-09-20T13:31:22.518Z,16.40
2022-09-20T13:32:45.039Z,16.20
2022-09-20T13:34:23.871Z,16.10
2022-09-20T13:35:48.301Z,15.90
2022-09-20T13:37:23.508Z,15.70
2022-09-20T13:38:48.276Z,15.60
2022-09-20T13:40:24.030Z,15.50
2022-09-20T13:41:47.076Z,15.50
2022-09-20T13:43:23.536Z,15.60
2022-09-20T13:44:48.002Z,15.70
2022-09-20T13:46:17.633Z,15.80
2022-09-20T13:47:43.332Z,16.10
2022-09-20T13:49:11.286Z,16.30
2022-09-20T13:50:35.752Z,16.50
2022-09-20T13:51:57.777Z,16.50
2022-09-20T13:53:40.672Z,16.50
2022-09-20T13:55:27.170Z,16.50
2022-09-20T13:56:51.061Z,16.50
2022-09-20T13:58:29.474Z,16.40
2022-09-20T13:59:52.814Z,16.30
2022-09-20T14:01:26.831Z,16.30
2022-09-20T14:02:50.290Z,16.50
2022-09-20T14:04:18.389Z,16.70
2022-09-20T14:05:47.820Z,16.80
2022-09-20T14:07:11.130Z,16.90
2022-09-20T14:08:42.500Z,16.90
2022-09-20T14:10:05.140Z,17.10
2022-09-20T14:11:31.113Z,17.10
2022-09-20T14:12:54.318Z,17.00
2022-09-20T14:14:21.868Z,17.20
2022-09-20T14:15:46.957Z,17.30
2022-09-20T14:17:12.277Z,17.50
2022-09-20T14:18:36.441Z,17.60
2022-09-20T14:19:58.534Z,17.50
2022-09-20T14:21:26.988Z,17.50
2022-09-20T14:22:49.135Z,17.20
2022-09-20T14:24:13.820Z,16.90
2022-09-20T14:25:36.507Z,16.80
2022-09-20T14:27:19.699Z,16.60
2022-09-20T14:28:42.219Z,16.50
2022-09-20T14:30:05.896Z,16.40
2022-09-20T14:31:32.371Z,16.40
2022-09-20T14:32:57.105Z,16.50
2022-09-20T14:34:19.204Z,16.60
2022-09-20T14:35:48.328Z,16.70
2022-09-20T14:37:22.310Z,16.80
2022-09-20T14:38:46.749Z,16.60
2022-09-20T14:40:24.945Z,16.70
2022-09-20T14:41:47.463Z,16.80
2022-09-20T14:43:31.501Z,16.70
2022-09-20T14:44:53.942Z,16.50
2022-09-20T14:46:17.373Z,16.30
2022-09-20T14:47:52.743Z,16.40
2022-09-20T14:49:27.069Z,16.40
2022-09-20T14:51:28.211Z,16.70
2022-09-20T14:53:27.007Z,16.90
2022-09-20T14:55:00.113Z,17.00
2022-09-20T14:56:37.834Z,17.20
2022-09-20T14:58:03.290Z,17.30
2022-09-20T14:59:27.697Z,17.30
2022-09-20T15:00:51.216Z,17.20
2022-09-20T15:02:16.536Z,17.00
2022-09-20T15:03:40.861Z,17.00
2022-09-20T15:05:03.339Z,17.10
2022-09-20T15:06:26.183Z,17.10
2022-09-20T15:07:48.239Z,17.00
2022-09-20T15:09:13.102Z,16.90
2022-09-20T15:10:35.092Z,16.80
2022-09-20T15:12:04.135Z,16.80
2022-09-20T15:13:26.253Z,16.60
2022-09-20T15:14:48.916Z,16.50
2022-09-20T15:16:14.998Z,16.50
2022-09-20T15:17:37.327Z,16.60
2022-09-20T15:18:59.699Z,16.60
2022-09-20T15:20:24.493Z,16.70
2022-09-20T15:21:46.807Z,16.60
2022-09-20T15:23:08.857Z,16.60
2022-09-20T15:24:30.856Z,16.60
2022-09-20T15:25:54.699Z,16.80
2022-09-20T15:27:16.824Z,16.90
2022-09-20T15:28:38.851Z,17.00
2022-09-20T15:30:00.846Z,17.10
2022-09-20T15:31:22.916Z,17.20
2022-09-20T15:32:45.715Z,17.40
2022-09-20T15:34:07.958Z,17.40
2022-09-20T15:35:29.988Z,17.40
2022-09-20T15:36:53.876Z,17.40
2022-09-20T15:38:19.328Z,17.50
2022-09-20T15:39:41.312Z,17.40
2022-09-20T15:41:04.132Z,17.40
2022-09-20T15:42:26.171Z,17.30
2022-09-20T15:43:49.339Z,17.10
2022-09-20T15:45:12.220Z,17.10
2022-09-20T15:46:35.199Z,17.10
2022-09-20T15:47:57.808Z,17.30
2022-09-20T15:49:20.813Z,17.30
2022-09-20T15:50:42.943Z,17.30
2022-09-20T15:52:05.224Z,17.40
2022-09-20T15:53:28.473Z,17.30
2022-09-20T15:54:50.929Z,17.20
2022-09-20T15:56:24.705Z,17.00
2022-09-20T15:57:47.405Z,16.80
2022-09-20T15:59:11.509Z,16.70
2022-09-20T16:00:33.917Z,16.50
2022-09-20T16:01:56.045Z,16.40
2022-09-20T16:03:18.125Z,16.30
2022-09-20T16:04:40.150Z,16.20
2022-09-20T16:06:05.351Z,16.20
2022-09-20T16:07:27.746Z,16.10
2022-09-20T16:08:50.252Z,16.10
2022-09-20T16:10:12.257Z,16.00
2022-09-20T16:11:34.398Z,16.00
2022-09-20T16:12:56.389Z,16.00
2022-09-20T16:14:18.411Z,15.90
2022-09-20T16:15:40.555Z,15.80
2022-09-20T16:17:02.698Z,15.80
2022-09-20T16:18:44.145Z,15.80
2022-09-20T16:20:07.120Z,15.70
2022-09-20T16:21:29.201Z,15.70
2022-09-20T16:22:51.309Z,15.70
2022-09-20T16:24:13.640Z,15.60
2022-09-20T16:25:36.131Z,15.60
2022-09-20T16:26:59.035Z,15.60
2022-09-20T16:28:21.104Z,15.50
2022-09-20T16:29:43.123Z,15.50
2022-09-20T16:31:05.292Z,15.40
2022-09-20T16:32:27.465Z,15.40
2022-09-20T16:33:49.449Z,15.40
2022-09-20T16:35:11.449Z,15.30
2022-09-20T16:36:33.741Z,15.20
2022-09-20T16:37:57.312Z,15.10
2022-09-20T16:39:20.660Z,15.10
2022-09-20T16:40:42.664Z,15.00
2022-09-20T16:42:06.254Z,14.90
2022-09-20T16:43:30.296Z,14.90
2022-09-20T16:44:52.331Z,14.80
2022-09-20T16:46:14.445Z,14.80
2022-09-20T16:47:41.113Z,14.70
2022-09-20T16:49:06.268Z,14.70
2022-09-20T16:50:28.864Z,14.60
2022-09-20T16:51:50.866Z,14.50
2022-09-20T16:53:13.030Z,14.50
2022-09-20T16:54:35.527Z,14.40
2022-09-20T16:55:57.545Z,14.40
2022-09-20T16:57:19.590Z,14.30
2022-09-20T16:58:42.042Z,14.30
2022-09-20T17:00:04.643Z,14.20
2022-09-20T17:01:26.929Z,14.20
2022-09-20T17:02:52.889Z,14.10
2022-09-20T17:04:18.412Z,14.10
2022-09-20T17:05:42.299Z,14.00
2022-09-20T17:07:04.553Z,13.90
2022-09-20T17:08:27.389Z,13.90
2022-09-20T17:09:49.484Z,13.90
2022-09-20T17:11:14.993Z,13.80
2022-09-20T17:12:42.337Z,13.80
2022-09-20T17:14:05.231Z,13.70
2022-09-20T17:15:27.220Z,13.70
2022-09-20T17:16:50.483Z,13.60
2022-09-20T17:18:15.650Z,13.60
2022-09-20T17:19:37.883Z,13.50
2022-09-20T17:21:06.928Z,13.50
2022-09-20T17:22:29.429Z,13.40
2022-09-20T17:23:56.192Z,13.30
2022-09-20T17:25:18.317Z,13.30
2022-09-20T17:26:44.648Z,13.20
2022-09-20T17:28:06.703Z,13.20
2022-09-20T17:29:28.691Z,13.10
2022-09-20T17:30:50.682Z,13.10
2022-09-20T17:32:12.710Z,13.10
2022-09-20T17:33:36.291Z,13.00
2022-09-20T17:34:59.167Z,13.00
2022-09-20T17:36:21.804Z,13.00
2022-09-20T17:37:43.846Z,12.90
2022-09-20T17:39:07.060Z,12.90
2022-09-20T17:40:29.152Z,12.80
2022-09-20T17:41:51.480Z,12.80
2022-09-20T17:43:13.502Z,12.80
2022-09-20T17:44:37.496Z,12.70
2022-09-20T17:46:07.376Z,12.70
2022-09-20T17:47:29.490Z,12.70
2022-09-20T17:49:12.966Z,12.60
2022-09-20T17:50:35.056Z,12.60
2022-09-20T17:51:57.110Z,12.50
2022-09-20T17:53:19.097Z,12.50
2022-09-20T17:54:41.183Z,12.50
2022-09-20T17:56:04.309Z,12.50
2022-09-20T17:57:26.291Z,12.40
2022-09-20T17:58:48.308Z,12.40
2022-09-20T18:00:11.013Z,12.40
2022-09-20T18:01:34.936Z,12.40
2022-09-20T18:02:58.144Z,12.40
2022-09-20T18:04:24.784Z,12.30
2022-09-20T18:05:47.101Z,12.30
2022-09-20T18:07:09.205Z,12.40
2022-09-20T18:08:31.229Z,12.40
2022-09-20T18:09:53.511Z,12.30
2022-09-20T18:11:17.628Z,12.30
2022-09-20T18:12:39.644Z,12.30
2022-09-20T18:14:03.982Z,12.30
2022-09-20T18:15:26.303Z,12.20
2022-09-20T18:16:51.140Z,12.20
2022-09-20T18:18:13.168Z,12.20
2022-09-20T18:19:35.691Z,12.10
2022-09-20T18:20:57.725Z,12.10
2022-09-20T18:22:19.785Z,12.10
2022-09-20T18:23:42.926Z,12.00
2022-09-20T18:25:05.265Z,12.00
2022-09-20T18:26:30.251Z,12.00
2022-09-20T18:27:52.764Z,11.90
2022-09-20T18:29:18.087Z,12.00
2022-09-20T18:30:40.583Z,11.90
2022-09-20T18:32:02.669Z,11.90
2022-09-20T18:33:25.141Z,11.90
2022-09-20T18:34:51.128Z,11.80
2022-09-20T18:36:13.541Z,11.80
2022-09-20T18:37:37.077Z,11.80
2022-09-20T18:38:59.716Z,11.80
2022-09-20T18:40:23.358Z,11.80
2022-09-20T18:41:45.745Z,11.90
2022-09-20T18:43:08.174Z,11.80
2022-09-20T18:44:33.742Z,11.90
2022-09-20T18:45:57.577Z,11.90
2022-09-20T18:47:19.602Z,11.90
2022-09-20T18:48:41.772Z,12.00
2022-09-20T18:50:04.001Z,12.10
2022-09-20T18:51:30.235Z,12.10
2022-09-20T18:52:53.370Z,12.10
2022-09-20T18:54:15.495Z,12.10
2022-09-20T18:55:37.738Z,12.20
2022-09-20T18:57:00.087Z,12.20
2022-09-20T18:58:24.086Z,12.20
2022-09-20T18:59:54.013Z,12.30
2022-09-20T19:01:45.466Z,12.30
2022-09-20T19:03:51.844Z,12.30
2022-09-20T19:05:38.819Z,12.30
2022-09-20T19:07:21.841Z,12.30
2022-09-20T19:08:59.095Z,12.30
2022-09-20T19:10:38.400Z,12.20
2022-09-20T19:12:18.012Z,12.30
2022-09-20T19:14:11.394Z,12.20
2022-09-20T19:15:55.343Z,12.20
2022-09-20T19:17:28.134Z,12.10
2022-09-20T19:19:07.539Z,12.00
2022-09-20T19:20:56.228Z,12.00
2022-09-20T19:22:32.074Z,12.00
2022-09-20T19:24:09.197Z,11.90
2022-09-20T19:25:43.545Z,11.90
2022-09-20T19:27:05.926Z,11.80
2022-09-20T19:28:28.136Z,11.80
2022-09-20T19:29:50.396Z,11.70
2022-09-20T19:31:24.698Z,11.70
2022-09-20T19:32:47.073Z,11.70
2022-09-20T19:34:18.544Z,11.60
2022-09-20T19:35:49.366Z,11.60
2022-09-20T19:37:18.626Z,11.50
2022-09-20T19:39:08.659Z,11.50
2022-09-20T19:40:59.560Z,11.40
2022-09-20T19:42:21.552Z,11.40
2022-09-20T19:44:24.160Z,11.30
2022-09-20T19:45:49.055Z,11.30
2022-09-20T19:47:36.758Z,11.20
2022-09-20T19:49:15.559Z,11.20
2022-09-20T19:50:47.246Z,11.10
2022-09-20T19:52:12.109Z,11.10
2022-09-20T19:53:34.996Z,11.10
2022-09-20T19:54:57.432Z,11.10
2022-09-20T19:56:25.813Z,11.00
2022-09-20T19:57:48.282Z,11.00